createdAt,value
2018-03-26T00:01:53.536Z,6.63
2018-03-26T00:04:21.059Z,6.68
2018-03-26T00:06:49.556Z,6.66
2018-03-26T00:09:17.059Z,6.69
2018-03-26T00:11:44.796Z,6.69
2018-03-26T00:14:12.296Z,6.67
2018-03-26T00:16:40.460Z,6.68
2018-03-26T00:19:08.131Z,6.65
2018-03-26T00:21:35.619Z,6.68
2018-03-26T00:24:03.108Z,6.68
2018-03-26T00:26:30.570Z,6.64
2018-03-26T00:28:58.306Z,6.70
2018-03-26T00:31:25.759Z,6.68
2018-03-26T00:33:53.496Z,6.63
2018-03-26T00:36:21.008Z,6.70
2018-03-26T00:38:48.642Z,6.71
2018-03-26T00:41:16.095Z,6.70
2018-03-26T00:43:43.571Z,6.73
2018-03-26T00:46:11.029Z,6.71
2018-03-26T00:48:38.599Z,6.76
2018-03-26T00:51:06.074Z,6.82
2018-03-26T00:53:44.467Z,6.89
2018-03-26T00:56:11.950Z,6.78
2018-03-26T00:58:39.435Z,6.84
2018-03-26T01:01:07.147Z,6.94
2018-03-26T01:03:34.607Z,7.01
2018-03-26T01:06:02.087Z,7.02
2018-03-26T01:08:29.536Z,6.89
2018-03-26T01:10:57.032Z,6.98
2018-03-26T01:13:24.522Z,6.98
2018-03-26T01:15:51.996Z,6.94
2018-03-26T01:18:19.467Z,6.95
2018-03-26T01:20:47.008Z,6.86
2018-03-26T01:23:14.992Z,6.91
2018-03-26T01:25:42.503Z,6.91
2018-03-26T01:28:09.964Z,6.81
2018-03-26T01:30:37.503Z,6.93
2018-03-26T01:33:05.396Z,6.89
2018-03-26T01:35:33.520Z,6.84
2018-03-26T01:38:01.786Z,6.99
2018-03-26T01:40:29.546Z,6.93
2018-03-26T01:42:57.043Z,6.91
2018-03-26T01:45:24.816Z,6.86
2018-03-26T01:47:52.794Z,6.89
2018-03-26T01:50:20.282Z,6.90
2018-03-26T01:52:48.439Z,6.86
2018-03-26T01:55:16.140Z,6.83
2018-03-26T01:57:44.077Z,6.80
2018-03-26T02:00:11.551Z,6.76
2018-03-26T02:02:39.040Z,6.75
2018-03-26T02:05:06.854Z,6.81
2018-03-26T02:07:34.363Z,6.81
2018-03-26T02:10:01.845Z,6.82
2018-03-26T02:12:29.302Z,6.80
2018-03-26T02:14:57.469Z,6.88
2018-03-26T02:17:24.967Z,6.84
2018-03-26T02:19:52.727Z,6.79
2018-03-26T02:22:20.211Z,6.86
2018-03-26T02:24:47.711Z,6.90
2018-03-26T02:27:15.497Z,6.87
2018-03-26T02:29:43.024Z,6.80
2018-03-26T02:32:10.527Z,6.85
2018-03-26T02:34:37.983Z,6.83
2018-03-26T02:37:05.542Z,6.94
2018-03-26T02:39:33.904Z,6.85
2018-03-26T02:42:01.420Z,6.74
2018-03-26T02:44:29.099Z,6.77
2018-03-26T02:46:56.857Z,6.79
2018-03-26T02:49:24.314Z,6.71
2018-03-26T02:51:51.800Z,6.80
2018-03-26T02:54:19.571Z,6.86
2018-03-26T02:56:47.090Z,6.80
2018-03-26T02:59:14.881Z,6.84
2018-03-26T03:01:42.405Z,6.94
2018-03-26T03:04:10.245Z,6.94
2018-03-26T03:06:37.772Z,6.89
2018-03-26T03:09:06.134Z,6.83
2018-03-26T03:11:33.608Z,6.85
2018-03-26T03:14:01.369Z,6.80
2018-03-26T03:16:29.723Z,6.86
2018-03-26T03:18:57.359Z,6.79
2018-03-26T03:21:24.859Z,6.72
2018-03-26T03:23:52.702Z,6.70
2018-03-26T03:26:20.190Z,6.74
2018-03-26T03:28:48.021Z,6.71
2018-03-26T03:31:15.770Z,6.67
2018-03-26T03:33:43.467Z,6.66
2018-03-26T03:36:12.866Z,6.59
2018-03-26T03:38:40.353Z,6.52
2018-03-26T03:41:07.829Z,6.62
2018-03-26T03:43:35.775Z,6.58
2018-03-26T03:46:03.267Z,6.53
2018-03-26T03:48:30.731Z,6.49
2018-03-26T03:50:58.257Z,6.43
2018-03-26T03:53:25.748Z,6.42
2018-03-26T03:55:53.249Z,6.40
2018-03-26T03:58:21.683Z,6.47
2018-03-26T04:00:49.148Z,6.33
2018-03-26T04:03:16.666Z,6.31
2018-03-26T04:05:44.135Z,6.34
2018-03-26T04:08:11.647Z,6.26
2018-03-26T04:10:39.103Z,6.23
2018-03-26T04:13:06.590Z,6.25
2018-03-26T04:15:34.380Z,6.24
2018-03-26T04:18:01.867Z,6.19
2018-03-26T04:20:29.335Z,6.17
2018-03-26T04:22:57.230Z,6.13
2018-03-26T04:25:24.921Z,6.15
2018-03-26T04:27:52.408Z,6.10
2018-03-26T04:30:19.878Z,5.99
2018-03-26T04:32:47.832Z,6.04
2018-03-26T04:35:15.591Z,5.95
2018-03-26T04:37:43.131Z,5.92
2018-03-26T04:40:11.512Z,5.91
2018-03-26T04:42:39.256Z,5.82
2018-03-26T04:45:07.139Z,5.75
2018-03-26T04:47:34.632Z,5.73
2018-03-26T04:50:02.128Z,5.59
2018-03-26T04:52:29.608Z,5.62
2018-03-26T04:54:57.457Z,5.60
2018-03-26T04:57:25.450Z,5.59
2018-03-26T04:59:54.105Z,5.58
2018-03-26T05:02:21.580Z,5.55
2018-03-26T05:04:49.618Z,5.53
2018-03-26T05:07:17.335Z,5.51
2018-03-26T05:09:44.871Z,5.51
2018-03-26T05:12:13.054Z,5.43
2018-03-26T05:14:40.735Z,5.45
2018-03-26T05:17:08.743Z,5.42
2018-03-26T05:19:36.230Z,5.32
2018-03-26T05:22:03.723Z,5.32
2018-03-26T05:24:31.207Z,5.33
2018-03-26T05:27:00.534Z,5.30
2018-03-26T05:29:28.008Z,5.28
2018-03-26T05:31:55.502Z,5.24
2018-03-26T05:34:24.019Z,5.28
2018-03-26T05:36:51.479Z,5.24
2018-03-26T05:39:18.951Z,5.20
2018-03-26T05:41:46.659Z,5.15
2018-03-26T05:44:14.424Z,5.18
2018-03-26T05:46:42.120Z,5.17
2018-03-26T05:49:09.613Z,5.18
2018-03-26T05:51:37.108Z,5.14
2018-03-26T05:54:04.624Z,5.11
2018-03-26T05:56:32.082Z,5.12
2018-03-26T05:58:59.815Z,5.08
2018-03-26T06:01:27.683Z,5.07
2018-03-26T06:03:55.395Z,5.01
2018-03-26T06:06:22.877Z,4.95
2018-03-26T06:08:50.422Z,4.94
2018-03-26T06:11:17.915Z,4.88
2018-03-26T06:13:45.451Z,4.89
2018-03-26T06:16:13.698Z,4.86
2018-03-26T06:18:41.981Z,4.79
2018-03-26T06:21:09.475Z,4.74
2018-03-26T06:23:37.218Z,4.70
2018-03-26T06:26:04.690Z,4.68
2018-03-26T06:28:32.951Z,4.68
2018-03-26T06:31:00.923Z,4.73
2018-03-26T06:33:28.436Z,4.68
2018-03-26T06:35:55.897Z,4.63
2018-03-26T06:38:28.931Z,4.63
2018-03-26T06:40:56.395Z,4.65
2018-03-26T06:43:23.958Z,4.75
2018-03-26T06:45:51.708Z,4.79
2018-03-26T06:48:19.219Z,4.76
2018-03-26T06:50:46.683Z,4.92
2018-03-26T06:53:14.671Z,4.94
2018-03-26T06:55:42.188Z,5.07
2018-03-26T06:58:09.649Z,5.25
2018-03-26T07:00:37.135Z,5.27
2018-03-26T07:03:04.634Z,5.58
2018-03-26T07:05:32.229Z,5.39
2018-03-26T07:08:00.147Z,5.40
2018-03-26T07:10:28.036Z,5.58
2018-03-26T07:12:55.507Z,5.72
2018-03-26T07:15:23.027Z,5.65
2018-03-26T07:17:50.531Z,5.73
2018-03-26T07:20:18.083Z,5.83
2018-03-26T07:22:45.548Z,6.04
2018-03-26T07:25:13.304Z,5.87
2018-03-26T07:27:40.791Z,5.85
2018-03-26T07:30:08.273Z,5.81
2018-03-26T07:32:35.738Z,5.93
2018-03-26T07:35:03.221Z,5.94
2018-03-26T07:37:31.473Z,6.31
2018-03-26T07:39:59.376Z,6.47
2018-03-26T07:42:27.138Z,6.71
2018-03-26T07:44:55.032Z,6.43
2018-03-26T07:47:22.917Z,6.57
2018-03-26T07:49:51.153Z,6.55
2018-03-26T07:52:19.848Z,6.71
2018-03-26T07:54:48.040Z,6.54
2018-03-26T07:57:16.071Z,6.61
2018-03-26T07:59:43.579Z,6.48
2018-03-26T08:02:11.040Z,6.69
2018-03-26T08:04:38.555Z,6.98
2018-03-26T08:07:06.082Z,6.76
2018-03-26T08:09:33.571Z,7.00
2018-03-26T08:12:01.036Z,7.04
2018-03-26T08:14:28.811Z,6.83
2018-03-26T08:16:56.527Z,6.80
2018-03-26T08:19:23.999Z,6.47
2018-03-26T08:21:51.529Z,6.71
2018-03-26T08:24:19.054Z,6.62
2018-03-26T08:26:46.582Z,6.90
2018-03-26T08:29:14.053Z,6.76
2018-03-26T08:31:42.332Z,6.90
2018-03-26T08:34:09.833Z,7.14
2018-03-26T08:36:38.068Z,7.09
2018-03-26T08:39:06.094Z,6.86
2018-03-26T08:41:33.816Z,6.77
2018-03-26T08:44:01.287Z,6.84
2018-03-26T08:46:29.495Z,7.05
2018-03-26T08:48:56.991Z,7.02
2018-03-26T08:51:24.475Z,7.27
2018-03-26T08:53:52.610Z,7.11
2018-03-26T08:56:20.133Z,7.11
2018-03-26T08:58:47.866Z,7.13
2018-03-26T09:01:15.348Z,6.94
2018-03-26T09:03:42.851Z,7.08
2018-03-26T09:06:10.358Z,7.20
2018-03-26T09:08:38.077Z,7.78
2018-03-26T09:11:05.563Z,7.82
2018-03-26T09:13:33.047Z,7.95
2018-03-26T09:16:01.288Z,8.05
2018-03-26T09:18:28.753Z,7.81
2018-03-26T09:20:56.267Z,8.21
2018-03-26T09:23:24.207Z,8.33
2018-03-26T09:25:51.736Z,8.27
2018-03-26T09:28:19.208Z,8.64
2018-03-26T09:30:47.182Z,8.88
2018-03-26T09:33:15.171Z,8.71
2018-03-26T09:35:42.688Z,8.52
2018-03-26T09:38:10.155Z,8.29
2018-03-26T09:40:38.276Z,8.47
2018-03-26T09:43:05.808Z,8.56
2018-03-26T09:45:33.280Z,8.97
2018-03-26T09:48:01.716Z,8.99
2018-03-26T09:50:29.179Z,8.95
2018-03-26T09:52:56.666Z,8.69
2018-03-26T09:55:24.143Z,8.67
2018-03-26T09:57:51.632Z,8.23
2018-03-26T10:00:19.089Z,8.62
2018-03-26T10:02:46.568Z,8.69
2018-03-26T10:05:14.030Z,8.31
2018-03-26T10:07:41.506Z,8.90
2018-03-26T10:10:08.973Z,8.88
2018-03-26T10:12:36.847Z,8.79
2018-03-26T10:15:04.726Z,9.07
2018-03-26T10:17:32.500Z,8.96
2018-03-26T10:20:01.223Z,9.28
2018-03-26T10:22:28.754Z,9.47
2018-03-26T10:24:56.277Z,9.04
2018-03-26T10:27:23.765Z,9.69
2018-03-26T10:29:51.223Z,10.07
2018-03-26T10:32:19.092Z,10.09
2018-03-26T10:34:46.648Z,9.96
2018-03-26T10:37:14.134Z,10.02
2018-03-26T10:39:41.608Z,10.32
2018-03-26T10:42:09.097Z,10.14
2018-03-26T10:44:36.559Z,9.84
2018-03-26T10:47:04.051Z,10.43
2018-03-26T10:49:31.523Z,10.15
2018-03-26T10:51:59.006Z,10.54
2018-03-26T10:54:26.487Z,10.62
2018-03-26T10:56:53.967Z,10.31
2018-03-26T10:59:21.438Z,10.46
2018-03-26T11:01:48.894Z,10.63
2018-03-26T11:04:16.370Z,10.70
2018-03-26T11:06:43.831Z,10.80
2018-03-26T11:09:11.316Z,11.24
2018-03-26T11:11:38.794Z,11.03
2018-03-26T11:14:06.272Z,10.83
2018-03-26T11:16:33.946Z,10.90
2018-03-26T11:19:01.429Z,10.97
2018-03-26T11:21:28.891Z,10.28
2018-03-26T11:23:56.375Z,10.50
2018-03-26T11:26:23.840Z,11.09
2018-03-26T11:28:52.305Z,10.82
2018-03-26T11:31:19.804Z,10.96
2018-03-26T11:33:47.283Z,11.07
2018-03-26T11:36:15.723Z,11.05
2018-03-26T11:38:43.200Z,10.82
2018-03-26T11:41:10.722Z,11.00
2018-03-26T11:43:38.212Z,11.09
2018-03-26T11:46:15.784Z,11.34
2018-03-26T11:48:43.279Z,10.78
2018-03-26T11:51:10.761Z,11.09
2018-03-26T11:53:38.247Z,11.17
2018-03-26T11:56:06.603Z,11.42
2018-03-26T11:58:34.090Z,11.57
2018-03-26T12:01:07.818Z,11.36
2018-03-26T12:03:35.294Z,11.88
2018-03-26T12:06:02.746Z,11.46
2018-03-26T12:08:36.283Z,10.96
2018-03-26T12:11:03.743Z,11.42
2018-03-26T12:13:31.255Z,11.83
2018-03-26T12:15:58.710Z,11.90
2018-03-26T12:18:26.188Z,11.33
2018-03-26T12:21:00.159Z,11.90
2018-03-26T12:23:39.419Z,11.64
2018-03-26T12:26:06.918Z,11.65
2018-03-26T12:28:46.024Z,11.58
2018-03-26T12:31:13.956Z,11.92
2018-03-26T12:33:53.375Z,11.52
2018-03-26T12:36:20.831Z,11.70
2018-03-26T12:38:49.299Z,11.32
2018-03-26T12:41:16.783Z,11.37
2018-03-26T12:43:44.239Z,11.58
2018-03-26T12:46:23.638Z,12.36
2018-03-26T12:48:51.103Z,12.03
2018-03-26T12:51:30.447Z,12.66
2018-03-26T12:53:57.906Z,12.39
2018-03-26T12:56:25.383Z,12.37
2018-03-26T12:58:52.840Z,12.39
2018-03-26T13:01:32.171Z,12.67
2018-03-26T13:03:59.674Z,12.02
2018-03-26T13:06:27.164Z,11.96
2018-03-26T13:08:54.643Z,11.93
2018-03-26T13:11:22.130Z,12.60
2018-03-26T13:13:50.099Z,12.65
2018-03-26T13:16:17.586Z,12.31
2018-03-26T13:18:45.052Z,12.32
2018-03-26T13:21:12.548Z,12.42
2018-03-26T13:23:40.012Z,12.86
2018-03-26T13:26:07.496Z,12.59
2018-03-26T13:28:34.974Z,12.18
2018-03-26T13:31:02.451Z,12.56
2018-03-26T13:33:29.954Z,12.48
2018-03-26T13:35:57.440Z,13.18
2018-03-26T13:38:24.919Z,12.28
2018-03-26T13:40:52.399Z,13.40
2018-03-26T13:43:19.858Z,13.27
2018-03-26T13:45:47.339Z,12.72
2018-03-26T13:48:14.805Z,12.58
2018-03-26T13:50:42.300Z,12.16
2018-03-26T13:53:09.762Z,11.75
2018-03-26T13:55:37.240Z,12.93
2018-03-26T13:58:04.708Z,12.80
2018-03-26T14:00:32.190Z,12.78
2018-03-26T14:02:59.664Z,12.00
2018-03-26T14:05:27.155Z,13.08
2018-03-26T14:07:54.619Z,13.79
2018-03-26T14:10:33.883Z,12.79
2018-03-26T14:13:13.257Z,13.64
2018-03-26T14:15:52.519Z,13.94
2018-03-26T14:18:19.979Z,13.23
2018-03-26T14:20:47.479Z,13.70
2018-03-26T14:23:14.940Z,13.61
2018-03-26T14:25:42.398Z,13.62
2018-03-26T14:28:10.591Z,13.88
2018-03-26T14:30:38.053Z,13.46
2018-03-26T14:33:05.524Z,12.41
2018-03-26T14:35:47.867Z,12.49
2018-03-26T14:38:15.359Z,12.39
2018-03-26T14:40:42.814Z,12.70
2018-03-26T14:43:10.324Z,13.19
2018-03-26T14:45:37.763Z,13.65
2018-03-26T14:48:05.242Z,13.73
2018-03-26T14:50:32.702Z,13.68
2018-03-26T14:53:00.180Z,13.98
2018-03-26T14:55:27.743Z,14.25
2018-03-26T14:57:55.136Z,14.43
2018-03-26T15:00:22.616Z,14.77
2018-03-26T15:02:50.105Z,13.33
2018-03-26T15:05:17.564Z,12.98
2018-03-26T15:07:45.058Z,12.31
2018-03-26T15:10:12.527Z,12.15
2018-03-26T15:12:40.011Z,11.77
2018-03-26T15:15:07.482Z,11.61
2018-03-26T15:17:34.978Z,11.50
2018-03-26T15:20:02.440Z,11.49
2018-03-26T15:22:29.923Z,11.28
2018-03-26T15:24:57.392Z,11.14
2018-03-26T15:27:24.932Z,11.16
2018-03-26T15:29:52.359Z,11.37
2018-03-26T15:32:19.848Z,11.21
2018-03-26T15:34:48.141Z,11.03
2018-03-26T15:37:15.627Z,11.13
2018-03-26T15:39:43.091Z,11.35
2018-03-26T15:42:10.578Z,11.27
2018-03-26T15:44:38.061Z,11.24
2018-03-26T15:47:05.547Z,11.13
2018-03-26T15:49:33.013Z,11.20
2018-03-26T15:52:00.496Z,11.97
2018-03-26T15:54:27.960Z,14.88
2018-03-26T15:56:55.453Z,16.62
2018-03-26T15:59:22.932Z,16.08
2018-03-26T16:01:50.386Z,14.35
2018-03-26T16:04:17.878Z,14.82
2018-03-26T16:06:45.340Z,15.25
2018-03-26T16:09:12.841Z,14.50
2018-03-26T16:11:40.355Z,13.77
2018-03-26T16:14:07.874Z,13.09
2018-03-26T16:16:36.094Z,12.89
2018-03-26T16:19:03.579Z,11.85
2018-03-26T16:21:31.048Z,11.36
2018-03-26T16:23:58.823Z,11.44
2018-03-26T16:26:26.287Z,11.41
2018-03-26T16:28:53.786Z,11.28
2018-03-26T16:31:21.261Z,11.19
2018-03-26T16:33:48.739Z,11.10
2018-03-26T16:36:16.431Z,11.03
2018-03-26T16:38:43.911Z,10.97
2018-03-26T16:41:11.371Z,10.85
2018-03-26T16:43:38.887Z,10.82
2018-03-26T16:46:06.870Z,10.80
2018-03-26T16:48:34.357Z,10.74
2018-03-26T16:51:01.846Z,10.66
2018-03-26T16:53:29.327Z,10.54
2018-03-26T16:55:56.783Z,10.49
2018-03-26T16:58:24.267Z,10.50
2018-03-26T17:00:51.724Z,10.57
2018-03-26T17:03:20.114Z,10.50
2018-03-26T17:05:47.580Z,10.64
2018-03-26T17:08:15.064Z,10.54
2018-03-26T17:10:42.519Z,10.54
2018-03-26T17:13:09.995Z,10.45
2018-03-26T17:15:37.463Z,10.35
2018-03-26T17:18:04.951Z,10.41
2018-03-26T17:20:32.413Z,10.35
2018-03-26T17:22:59.920Z,10.41
2018-03-26T17:25:27.375Z,10.16
2018-03-26T17:27:54.831Z,10.30
2018-03-26T17:30:22.314Z,10.18
2018-03-26T17:32:49.770Z,10.19
2018-03-26T17:35:17.264Z,10.16
2018-03-26T17:37:44.735Z,10.07
2018-03-26T17:40:12.216Z,10.02
2018-03-26T17:42:39.667Z,9.92
2018-03-26T17:45:07.150Z,9.94
2018-03-26T17:47:34.612Z,9.95
2018-03-26T17:50:02.090Z,9.96
2018-03-26T17:52:29.559Z,9.90
2018-03-26T17:54:57.052Z,9.83
2018-03-26T17:57:24.510Z,9.82
2018-03-26T17:59:52.011Z,9.59
2018-03-26T18:02:19.476Z,9.60
2018-03-26T18:04:46.956Z,9.54
2018-03-26T18:07:14.415Z,9.38
2018-03-26T18:09:41.895Z,9.21
2018-03-26T18:12:09.375Z,9.03
2018-03-26T18:14:36.856Z,8.86
2018-03-26T18:17:04.315Z,8.75
2018-03-26T18:19:31.803Z,8.63
2018-03-26T18:21:59.290Z,8.35
2018-03-26T18:24:26.767Z,8.28
2018-03-26T18:26:54.228Z,8.19
2018-03-26T18:29:21.711Z,8.10
2018-03-26T18:31:49.164Z,8.11
2018-03-26T18:34:16.730Z,8.08
2018-03-26T18:36:50.843Z,8.07
2018-03-26T18:39:18.325Z,8.10
2018-03-26T18:41:45.825Z,8.07
2018-03-26T18:44:13.334Z,7.95
2018-03-26T18:46:40.799Z,7.87
2018-03-26T18:49:09.296Z,7.82
2018-03-26T18:51:36.792Z,7.76
2018-03-26T18:54:04.274Z,7.69
2018-03-26T18:59:24.754Z,8.07
2018-03-26T19:02:02.583Z,8.03
2018-03-26T19:04:30.060Z,7.83
2018-03-26T19:06:57.515Z,7.83
2018-03-26T19:09:25.027Z,7.78
2018-03-26T19:11:52.484Z,7.82
2018-03-26T19:14:19.986Z,7.98
2018-03-26T19:16:47.493Z,8.15
2018-03-26T19:19:14.918Z,7.94
2018-03-26T19:21:42.399Z,7.98
2018-03-26T19:24:09.860Z,7.95
2018-03-26T19:26:37.332Z,8.11
2018-03-26T19:29:04.796Z,8.20
2018-03-26T19:31:33.386Z,8.12
2018-03-26T19:34:00.845Z,8.07
2018-03-26T19:36:28.322Z,8.02
2018-03-26T19:38:55.778Z,7.97
2018-03-26T19:41:23.265Z,8.01
2018-03-26T19:43:50.790Z,7.84
2018-03-26T19:46:18.340Z,7.66
2018-03-26T19:48:45.788Z,7.69
2018-03-26T19:51:13.282Z,7.65
2018-03-26T19:53:40.740Z,7.66
2018-03-26T19:56:08.223Z,7.73
2018-03-26T19:58:35.679Z,7.69
2018-03-26T20:01:03.168Z,7.93
2018-03-26T20:03:30.639Z,8.07
2018-03-26T20:05:58.132Z,8.14
2018-03-26T20:08:25.594Z,8.18
2018-03-26T20:10:53.087Z,8.14
2018-03-26T20:13:20.552Z,8.08
2018-03-26T20:15:48.039Z,7.93
2018-03-26T20:18:15.507Z,7.63
2018-03-26T20:20:42.983Z,7.79
2018-03-26T20:23:10.487Z,7.74
2018-03-26T20:25:37.939Z,7.81
2018-03-26T20:28:05.404Z,7.86
2018-03-26T20:30:32.906Z,7.82
2018-03-26T20:33:00.387Z,7.79
2018-03-26T20:35:27.864Z,7.82
2018-03-26T20:37:55.322Z,7.92
2018-03-26T20:40:22.771Z,7.86
2018-03-26T20:42:50.247Z,7.85
2018-03-26T20:45:17.703Z,7.91
2018-03-26T20:47:45.186Z,7.72
2018-03-26T20:50:12.663Z,7.72
2018-03-26T20:52:40.151Z,7.74
2018-03-26T20:55:07.653Z,7.77
2018-03-26T20:57:35.111Z,7.72
2018-03-26T21:00:02.578Z,7.66
2018-03-26T21:02:30.056Z,7.56
2018-03-26T21:04:57.531Z,7.49
2018-03-26T21:07:25.010Z,7.41
2018-03-26T21:09:52.487Z,7.25
2018-03-26T21:12:19.972Z,7.24
2018-03-26T21:14:47.435Z,7.19
2018-03-26T21:17:14.924Z,7.13
2018-03-26T21:19:42.398Z,7.08
2018-03-26T21:22:10.708Z,7.00
2018-03-26T21:24:38.206Z,7.02
2018-03-26T21:27:05.672Z,6.99
2018-03-26T21:29:33.147Z,6.97
2018-03-26T21:32:00.633Z,6.95
2018-03-26T21:34:28.099Z,6.90
2018-03-26T21:36:55.586Z,6.88
2018-03-26T21:39:23.062Z,6.86
2018-03-26T21:41:50.546Z,6.87
2018-03-26T21:44:18.017Z,6.76
2018-03-26T21:46:45.516Z,6.71
2018-03-26T21:49:12.979Z,6.65
2018-03-26T21:51:40.465Z,6.57
2018-03-26T21:54:07.933Z,6.50
2018-03-26T21:56:35.415Z,6.48
2018-03-26T21:59:02.886Z,6.43
2018-03-26T22:01:30.397Z,6.40
2018-03-26T22:03:57.915Z,6.34
2018-03-26T22:06:25.376Z,6.26
2018-03-26T22:08:52.863Z,6.23
2018-03-26T22:11:20.332Z,6.19
2018-03-26T22:13:47.806Z,6.17
2018-03-26T22:16:15.267Z,6.11
2018-03-26T22:18:42.761Z,6.09
2018-03-26T22:21:10.227Z,6.11
2018-03-26T22:23:37.706Z,6.02
2018-03-26T22:26:05.177Z,6.08
2018-03-26T22:28:32.675Z,6.00
2018-03-26T22:31:00.140Z,5.86
2018-03-26T22:33:27.623Z,5.85
2018-03-26T22:35:55.091Z,5.78
2018-03-26T22:38:22.599Z,5.67
2018-03-26T22:40:50.062Z,5.50
2018-03-26T22:43:17.542Z,5.58
2018-03-26T22:45:45.011Z,5.53
2018-03-26T22:48:12.497Z,5.55
2018-03-26T22:50:39.968Z,5.55
2018-03-26T22:53:07.454Z,5.55
2018-03-26T22:55:34.919Z,5.56
2018-03-26T22:58:02.402Z,5.56
2018-03-26T23:00:29.863Z,5.45
2018-03-26T23:02:57.348Z,5.41
2018-03-26T23:05:24.820Z,5.33
2018-03-26T23:07:52.315Z,5.28
2018-03-26T23:10:19.779Z,5.22
2018-03-26T23:12:47.267Z,5.23
2018-03-26T23:15:14.739Z,5.22
2018-03-26T23:17:42.227Z,5.27
2018-03-26T23:22:48.699Z,5.16
2018-03-26T23:25:16.168Z,5.05
2018-03-26T23:27:43.626Z,5.02
2018-03-26T23:30:11.106Z,5.02
2018-03-26T23:32:38.572Z,4.98
2018-03-26T23:35:06.052Z,4.87
2018-03-26T23:37:33.520Z,4.77
2018-03-26T23:40:01.122Z,4.69
2018-03-26T23:42:28.620Z,4.62
2018-03-26T23:44:56.107Z,4.51
2018-03-26T23:47:23.574Z,4.47
2018-03-26T23:49:51.063Z,4.39
2018-03-26T23:52:18.532Z,4.43
2018-03-26T23:54:46.022Z,4.46
2018-03-26T23:57:13.492Z,4.47
2018-03-26T23:59:40.992Z,4.31
